Time;durP1;ratioP1;P1;durP2;ratioP2;P2;SDS_P1;SDS_P2;PMS_P1;PMS_P2;Temp;Humidity;BMP_temperature;BMP_pressure;BME280_temperature;BME280_humidity;BME280_pressure;Samples;Min_cycle;Max_cycle;Signal;HPM_P1;HPM_P2
2023/12/01 00:00:50;;;;;;;36.63;15.63;;;;;;;;;;5028460;28;20076;-61
2023/12/01 00:03:16;;;;;;;37.85;16.98;;;;;;;;;;5022379;28;20101;-62
2023/12/01 00:05:41;;;;;;;38.13;16.33;;;;;;;;;;5025833;28;20720;-61
2023/12/01 00:08:06;;;;;;;37.83;15.68;;;;;;;;;;5028632;28;20037;-61
2023/12/01 00:10:31;;;;;;;35.95;15.38;;;;;;;;;;5018127;28;20557;-61
2023/12/01 00:12:56;;;;;;;39.53;15.38;;;;;;;;;;5020038;28;20041;-61
2023/12/01 00:15:21;;;;;;;37.63;16.27;;;;;;;;;;5028976;28;20025;-61
2023/12/01 00:17:46;;;;;;;39.55;16.70;;;;;;;;;;5022774;28;20043;-61
2023/12/01 00:20:12;;;;;;;37.83;16.40;;;;;;;;;;5030163;28;20022;-61
2023/12/01 00:22:37;;;;;;;41.15;17.33;;;;;;;;;;5025338;28;20032;-61
2023/12/01 00:25:02;;;;;;;38.00;15.32;;;;;;;;;;5026594;28;20014;-62
2023/12/01 00:27:27;;;;;;;40.78;16.45;;;;;;;;;;5026070;28;20038;-61
2023/12/01 00:29:52;;;;;;;34.80;15.40;;;;;;;;;;5030542;28;20547;-61
2023/12/01 00:32:18;;;;;;;40.72;16.23;;;;;;;;;;5029971;28;20030;-61
2023/12/01 00:34:43;;;;;;;36.37;15.17;;;;;;;;;;5030483;28;20045;-61
2023/12/01 00:37:08;;;;;;;40.05;16.45;;;;;;;;;;5022031;28;20021;-61
2023/12/01 00:39:33;;;;;;;39.17;16.77;;;;;;;;;;5029050;28;20112;-61
2023/12/01 00:41:58;;;;;;;36.27;16.03;;;;;;;;;;5024433;28;20018;-61
2023/12/01 00:44:23;;;;;;;32.63;14.85;;;;;;;;;;5027874;28;20017;-60
2023/12/01 00:46:48;;;;;;;36.33;15.82;;;;;;;;;;5023997;28;20096;-60
2023/12/01 00:49:14;;;;;;;38.88;16.88;;;;;;;;;;5023701;28;20036;-59
2023/12/01 00:51:43;;;;;;;36.97;16.08;;;;;;;;;;5027719;28;20527;-59
2023/12/01 00:54:09;;;;;;;38.17;16.45;;;;;;;;;;5021531;28;20067;-59
2023/12/01 00:56:34;;;;;;;35.50;14.93;;;;;;;;;;5022862;28;20056;-61
2023/12/01 00:58:59;;;;;;;35.30;14.70;;;;;;;;;;5025016;28;20447;-60
2023/12/01 01:01:25;;;;;;;40.88;16.50;;;;;;;;;;5028288;28;20025;-61
2023/12/01 01:03:50;;;;;;;36.25;15.90;;;;;;;;;;5025464;28;20036;-60
2023/12/01 01:06:15;;;;;;;34.53;15.25;;;;;;;;;;5025703;28;20481;-61
2023/12/01 01:08:40;;;;;;;36.80;15.18;;;;;;;;;;5026347;28;20080;-61
2023/12/01 01:11:05;;;;;;;37.58;15.35;;;;;;;;;;5021693;28;20022;-61
2023/12/01 01:13:32;;;;;;;37.80;16.57;;;;;;;;;;5027364;28;20057;-61
2023/12/01 01:15:57;;;;;;;39.50;17.17;;;;;;;;;;5023355;28;20557;-61
2023/12/01 01:18:23;;;;;;;36.60;16.00;;;;;;;;;;5023688;28;20113;-61
2023/12/01 01:20:48;;;;;;;42.00;16.60;;;;;;;;;;5018845;28;20452;-61
2023/12/01 01:23:13;;;;;;;39.05;16.42;;;;;;;;;;5022582;28;20100;-61
2023/12/01 01:25:38;;;;;;;38.00;16.63;;;;;;;;;;5028554;28;20087;-61
2023/12/01 01:28:03;;;;;;;37.53;15.32;;;;;;;;;;5016541;28;20424;-61
2023/12/01 01:30:29;;;;;;;38.73;14.97;;;;;;;;;;5029665;28;20037;-61
2023/12/01 01:32:54;;;;;;;41.45;15.93;;;;;;;;;;5023999;28;20444;-61
2023/12/01 01:35:19;;;;;;;37.17;15.10;;;;;;;;;;5029597;28;20021;-61
2023/12/01 01:37:44;;;;;;;36.30;15.13;;;;;;;;;;5026351;28;20524;-61
2023/12/01 01:40:11;;;;;;;35.50;15.30;;;;;;;;;;5022090;28;20033;-61
2023/12/01 01:42:36;;;;;;;;;;;;;;;;;;5020283;28;20394;-61
2023/12/01 01:45:02;;;;;;;38.53;15.80;;;;;;;;;;5028820;28;20433;-61
2023/12/01 01:47:27;;;;;;;36.58;14.93;;;;;;;;;;5028555;28;20027;-61
2023/12/01 01:49:52;;;;;;;36.10;15.07;;;;;;;;;;5026796;28;20030;-61
2023/12/01 01:52:18;;;;;;;37.10;15.77;;;;;;;;;;5027836;28;20189;-61
2023/12/01 01:54:43;;;;;;;37.90;15.15;;;;;;;;;;5022479;28;20042;-61
2023/12/01 01:57:08;;;;;;;39.65;16.38;;;;;;;;;;5018581;28;20056;-60
2023/12/01 01:59:33;;;;;;;34.37;14.73;;;;;;;;;;5022705;28;20025;-61
2023/12/01 02:01:58;;;;;;;34.42;15.05;;;;;;;;;;5022644;28;20018;-61
2023/12/01 02:04:23;;;;;;;36.13;15.32;;;;;;;;;;5023124;28;20408;-61
2023/12/01 02:06:49;;;;;;;34.70;15.07;;;;;;;;;;5020738;28;20041;-61
2023/12/01 02:09:14;;;;;;;35.50;14.77;;;;;;;;;;5023386;28;20018;-61
2023/12/01 02:11:42;;;;;;;40.50;14.73;;;;;;;;;;5023311;28;20025;-60
2023/12/01 02:14:08;;;;;;;34.70;14.68;;;;;;;;;;5026235;28;20033;-61
2023/12/01 02:16:33;;;;;;;38.28;15.50;;;;;;;;;;5027925;28;20604;-61
2023/12/01 02:18:58;;;;;;;34.73;14.70;;;;;;;;;;5019246;28;20108;-61
2023/12/01 02:21:26;;;;;;;33.80;14.65;;;;;;;;;;5019596;28;20021;-62
2023/12/01 02:23:52;;;;;;;36.83;15.70;;;;;;;;;;5020491;28;20021;-61
2023/12/01 02:26:17;;;;;;;39.20;15.00;;;;;;;;;;5025882;28;20347;-61
2023/12/01 02:28:42;;;;;;;35.83;14.67;;;;;;;;;;5018375;28;20045;-62
2023/12/01 02:31:07;;;;;;;37.47;15.50;;;;;;;;;;5026601;28;20042;-61
2023/12/01 02:33:32;;;;;;;33.60;14.25;;;;;;;;;;5029044;28;20030;-62
2023/12/01 02:35:58;;;;;;;36.53;15.30;;;;;;;;;;5023206;28;20385;-61
2023/12/01 02:38:23;;;;;;;38.28;14.63;;;;;;;;;;5017370;28;20477;-62
2023/12/01 02:40:51;;;;;;;37.45;15.60;;;;;;;;;;5023635;28;20010;-61
2023/12/01 02:43:17;;;;;;;37.47;15.43;;;;;;;;;;5014149;28;20045;-62
2023/12/01 02:45:42;;;;;;;37.13;14.70;;;;;;;;;;5025775;28;20060;-62
2023/12/01 02:48:08;;;;;;;36.88;15.13;;;;;;;;;;5031768;28;20041;-60
2023/12/01 02:50:34;;;;;;;37.70;15.85;;;;;;;;;;5022327;28;20030;-62
2023/12/01 02:53:00;;;;;;;37.60;15.85;;;;;;;;;;5019298;28;20025;-62
2023/12/01 02:55:25;;;;;;;38.08;15.68;;;;;;;;;;5025319;28;20100;-62
2023/12/01 02:57:50;;;;;;;36.05;14.63;;;;;;;;;;5024023;28;20209;-62
2023/12/01 03:00:15;;;;;;;35.88;15.48;;;;;;;;;;5021723;28;20594;-62
2023/12/01 03:02:41;;;;;;;39.05;16.42;;;;;;;;;;5028628;28;20025;-61
2023/12/01 03:05:07;;;;;;;36.42;14.48;;;;;;;;;;5022913;28;20026;-61
2023/12/01 03:07:32;;;;;;;36.88;15.77;;;;;;;;;;5031164;28;20037;-60
2023/12/01 03:09:57;;;;;;;39.95;15.85;;;;;;;;;;5025154;28;20018;-61
2023/12/01 03:12:22;;;;;;;35.72;15.45;;;;;;;;;;5030052;28;20025;-60
2023/12/01 03:14:47;;;;;;;39.63;16.40;;;;;;;;;;5025983;28;20026;-60
2023/12/01 03:17:12;;;;;;;37.17;15.77;;;;;;;;;;5031749;28;20389;-61
2023/12/01 03:19:38;;;;;;;39.50;15.02;;;;;;;;;;5023845;28;20036;-60
2023/12/01 03:22:03;;;;;;;38.88;15.98;;;;;;;;;;5027002;28;20389;-60
2023/12/01 03:24:28;;;;;;;36.72;15.00;;;;;;;;;;5027065;28;20025;-60
2023/12/01 03:26:53;;;;;;;35.38;15.25;;;;;;;;;;5033286;28;20029;-62
2023/12/01 03:29:19;;;;;;;37.63;15.68;;;;;;;;;;5024695;28;20598;-62
2023/12/01 03:31:44;;;;;;;36.58;14.98;;;;;;;;;;5022144;28;20025;-62
2023/12/01 03:34:09;;;;;;;34.85;14.07;;;;;;;;;;5031505;28;20381;-61
2023/12/01 03:36:34;;;;;;;34.15;14.02;;;;;;;;;;5031318;28;20083;-61
2023/12/01 03:38:59;;;;;;;37.08;15.82;;;;;;;;;;5032351;28;20055;-61
2023/12/01 03:41:24;;;;;;;32.53;13.98;;;;;;;;;;5027593;28;20050;-61
2023/12/01 03:43:49;;;;;;;35.03;14.45;;;;;;;;;;5029609;28;20034;-61
2023/12/01 03:46:15;;;;;;;36.10;15.32;;;;;;;;;;5033097;28;20053;-61
2023/12/01 03:48:40;;;;;;;38.20;15.40;;;;;;;;;;5019955;28;20117;-61
2023/12/01 03:51:05;;;;;;;37.95;14.80;;;;;;;;;;5019068;28;20033;-61
2023/12/01 03:53:31;;;;;;;36.80;14.82;;;;;;;;;;5021399;28;20014;-61
2023/12/01 03:55:56;;;;;;;37.10;14.63;;;;;;;;;;5023923;28;20049;-61
2023/12/01 03:58:24;;;;;;;36.67;14.90;;;;;;;;;;5028218;28;20113;-61
2023/12/01 04:00:50;;;;;;;36.00;14.30;;;;;;;;;;5027082;28;20026;-61
2023/12/01 04:03:15;;;;;;;36.30;14.10;;;;;;;;;;5029679;28;20032;-59
2023/12/01 04:05:40;;;;;;;36.13;14.47;;;;;;;;;;5020373;28;20018;-60
2023/12/01 04:08:05;;;;;;;35.17;13.63;;;;;;;;;;5026506;28;20128;-60
2023/12/01 04:10:31;;;;;;;37.63;15.75;;;;;;;;;;5030717;28;20025;-60
2023/12/01 04:12:56;;;;;;;33.70;14.45;;;;;;;;;;5028125;28;20489;-60
2023/12/01 04:15:24;;;;;;;37.00;15.35;;;;;;;;;;5024735;28;20021;-61
2023/12/01 04:17:49;;;;;;;42.42;16.35;;;;;;;;;;5029110;28;20022;-61
2023/12/01 04:20:21;;;;;;;37.80;15.65;;;;;;;;;;5031797;28;20021;-61
2023/12/01 04:22:50;;;;;;;39.55;16.05;;;;;;;;;;5021987;28;20021;-61
2023/12/01 04:25:15;;;;;;;37.50;14.63;;;;;;;;;;5013215;28;20045;-59
2023/12/01 04:27:40;;;;;;;36.20;14.63;;;;;;;;;;5015405;28;20058;-61
2023/12/01 04:30:13;;;;;;;36.90;15.18;;;;;;;;;;5027492;28;20025;-61
2023/12/01 04:32:39;;;;;;;39.22;14.85;;;;;;;;;;5028000;28;20017;-61
2023/12/01 04:35:04;;;;;;;38.83;15.47;;;;;;;;;;5023142;28;20028;-61
2023/12/01 04:37:31;;;;;;;39.03;16.20;;;;;;;;;;5023413;28;20024;-61
2023/12/01 04:39:56;;;;;;;40.83;16.02;;;;;;;;;;5016172;28;20022;-61
2023/12/01 04:42:21;;;;;;;36.55;14.77;;;;;;;;;;5027722;28;20472;-62
2023/12/01 04:44:46;;;;;;;37.83;15.73;;;;;;;;;;5029983;28;20033;-61
2023/12/01 04:47:11;;;;;;;39.22;15.13;;;;;;;;;;5018676;28;20032;-60
2023/12/01 04:49:36;;;;;;;38.15;15.02;;;;;;;;;;5023052;28;20366;-61
2023/12/01 04:52:03;;;;;;;33.92;14.38;;;;;;;;;;5021766;28;20104;-61
2023/12/01 04:54:29;;;;;;;38.72;16.02;;;;;;;;;;5026267;28;20111;-62
2023/12/01 04:56:54;;;;;;;39.25;15.68;;;;;;;;;;5023126;28;20021;-61
2023/12/01 04:59:19;;;;;;;40.72;15.63;;;;;;;;;;5027705;28;20390;-62
2023/12/01 05:01:44;;;;;;;38.95;15.65;;;;;;;;;;5015042;28;20154;-62
2023/12/01 05:04:10;;;;;;;37.27;15.30;;;;;;;;;;5021692;28;20068;-61
2023/12/01 05:06:35;;;;;;;35.63;14.13;;;;;;;;;;5025589;28;20483;-61
2023/12/01 05:09:00;;;;;;;36.83;13.97;;;;;;;;;;5023790;28;20026;-61
2023/12/01 05:11:25;;;;;;;39.42;15.20;;;;;;;;;;5029266;28;20197;-62
2023/12/01 05:13:50;;;;;;;39.13;15.30;;;;;;;;;;5029164;28;20017;-61
2023/12/01 05:16:16;;;;;;;40.20;15.63;;;;;;;;;;5025452;28;20418;-61
2023/12/01 05:18:41;;;;;;;39.00;14.90;;;;;;;;;;5024065;28;20022;-61
2023/12/01 05:21:08;;;;;;;38.13;15.33;;;;;;;;;;5025555;28;20467;-61
2023/12/01 05:23:34;;;;;;;37.08;14.85;;;;;;;;;;5027237;28;20068;-61
2023/12/01 05:25:59;;;;;;;39.28;14.88;;;;;;;;;;5026882;28;20053;-61
2023/12/01 05:28:25;;;;;;;38.60;15.18;;;;;;;;;;5026872;28;20475;-67
2023/12/01 05:30:50;;;;;;;37.65;14.38;;;;;;;;;;5027378;28;20029;-61
2023/12/01 05:33:16;;;;;;;36.67;14.35;;;;;;;;;;5023592;28;20040;-60
2023/12/01 05:35:45;;;;;;;37.85;15.15;;;;;;;;;;5013625;28;20056;-63
2023/12/01 05:38:11;;;;;;;38.33;14.40;;;;;;;;;;5016477;28;20025;-60
2023/12/01 05:40:37;;;;;;;38.33;15.32;;;;;;;;;;5016111;28;20102;-60
2023/12/01 05:43:03;;;;;;;39.38;15.20;;;;;;;;;;5018751;28;20028;-61
2023/12/01 05:45:28;;;;;;;34.42;14.63;;;;;;;;;;5017068;28;20704;-63
2023/12/01 05:47:54;;;;;;;38.22;15.05;;;;;;;;;;5026162;28;20896;-61
2023/12/01 05:50:27;;;;;;;35.00;14.35;;;;;;;;;;5026683;28;20021;-61
2023/12/01 05:52:53;;;;;;;38.53;15.50;;;;;;;;;;5023313;28;20021;-61
2023/12/01 05:55:19;;;;;;;37.85;15.13;;;;;;;;;;5018504;28;20053;-62
2023/12/01 05:57:46;;;;;;;38.88;15.32;;;;;;;;;;5023784;28;20025;-61
2023/12/01 06:00:12;;;;;;;43.20;16.48;;;;;;;;;;5022596;28;20033;-65
2023/12/01 06:02:39;;;;;;;39.65;15.82;;;;;;;;;;5022080;28;20075;-61
2023/12/01 06:05:04;;;;;;;34.08;14.05;;;;;;;;;;5017510;28;20032;-61
2023/12/01 06:07:29;;;;;;;35.30;14.55;;;;;;;;;;5021068;28;20053;-62
2023/12/01 06:09:54;;;;;;;35.53;14.90;;;;;;;;;;5022386;28;20169;-61
2023/12/01 06:12:19;;;;;;;39.33;15.27;;;;;;;;;;5024911;28;20109;-62
2023/12/01 06:14:45;;;;;;;38.05;15.10;;;;;;;;;;5019659;28;20416;-62
2023/12/01 06:17:10;;;;;;;38.58;14.50;;;;;;;;;;5022973;28;20541;-61
2023/12/01 06:19:35;;;;;;;36.70;14.70;;;;;;;;;;5025504;28;20029;-62
2023/12/01 06:22:00;;;;;;;37.50;15.27;;;;;;;;;;5024794;28;20100;-62
2023/12/01 06:24:26;;;;;;;39.00;15.75;;;;;;;;;;5016213;28;20623;-61
2023/12/01 06:26:52;;;;;;;38.42;15.63;;;;;;;;;;5024150;28;20021;-62
2023/12/01 06:29:18;;;;;;;36.58;14.85;;;;;;;;;;5022273;28;20033;-62
2023/12/01 06:31:43;;;;;;;38.57;14.83;;;;;;;;;;5022125;28;20104;-62
2023/12/01 06:34:08;;;;;;;37.80;15.37;;;;;;;;;;5025395;28;21009;-61
2023/12/01 06:36:33;;;;;;;36.65;15.15;;;;;;;;;;5026702;28;20635;-61
2023/12/01 06:38:58;;;;;;;39.53;15.35;;;;;;;;;;5020312;28;20025;-61
2023/12/01 06:41:23;;;;;;;38.05;15.05;;;;;;;;;;5025478;28;20061;-58
2023/12/01 06:43:48;;;;;;;39.83;14.23;;;;;;;;;;5028027;28;20028;-62
2023/12/01 06:46:14;;;;;;;37.47;14.82;;;;;;;;;;5029520;28;20497;-60
2023/12/01 06:48:39;;;;;;;36.77;15.03;;;;;;;;;;5019693;28;20361;-61
2023/12/01 06:51:04;;;;;;;37.67;15.25;;;;;;;;;;5026659;28;20025;-60
2023/12/01 06:53:29;;;;;;;41.47;15.38;;;;;;;;;;5024118;28;20450;-61
2023/12/01 06:55:54;;;;;;;35.65;14.50;;;;;;;;;;5029036;28;20030;-62
2023/12/01 06:58:19;;;;;;;40.22;14.98;;;;;;;;;;5018579;28;20026;-61
2023/12/01 07:00:45;;;;;;;38.20;15.32;;;;;;;;;;5022945;28;20053;-61
2023/12/01 07:03:10;;;;;;;41.97;15.90;;;;;;;;;;5017693;28;20029;-60
2023/12/01 07:05:35;;;;;;;40.80;15.63;;;;;;;;;;5019065;28;20014;-61
2023/12/01 07:08:01;;;;;;;38.08;15.20;;;;;;;;;;5017583;28;20038;-62
2023/12/01 07:10:27;;;;;;;37.35;14.20;;;;;;;;;;5016759;28;20363;-62
2023/12/01 07:12:54;;;;;;;39.17;15.70;;;;;;;;;;5013294;28;20064;-59
2023/12/01 07:15:20;;;;;;;39.00;16.02;;;;;;;;;;5022354;28;20071;-65
2023/12/01 07:17:48;;;;;;;38.33;15.63;;;;;;;;;;5025980;28;20017;-64
2023/12/01 07:20:14;;;;;;;38.75;15.77;;;;;;;;;;5024813;28;20087;-62
2023/12/01 07:22:40;;;;;;;39.50;15.63;;;;;;;;;;5027142;28;20108;-60
2023/12/01 07:25:10;;;;;;;39.05;15.13;;;;;;;;;;5028671;28;20021;-61
2023/12/01 07:27:35;;;;;;;41.28;15.55;;;;;;;;;;5022530;28;20087;-60
2023/12/01 07:30:00;;;;;;;38.53;14.93;;;;;;;;;;5027584;28;20478;-61
2023/12/01 07:32:25;;;;;;;40.35;16.05;;;;;;;;;;5024262;28;20029;-60
2023/12/01 07:34:51;;;;;;;39.15;14.73;;;;;;;;;;5024083;28;20037;-62
2023/12/01 07:37:16;;;;;;;43.50;16.58;;;;;;;;;;5029459;28;20029;-60
2023/12/01 07:39:41;;;;;;;37.58;16.02;;;;;;;;;;5023263;28;20034;-59
2023/12/01 07:42:07;;;;;;;37.38;14.90;;;;;;;;;;5032061;28;20029;-62
2023/12/01 07:44:32;;;;;;;39.80;15.35;;;;;;;;;;5022446;28;20037;-62
2023/12/01 07:46:57;;;;;;;39.72;14.85;;;;;;;;;;5024412;28;20048;-62
2023/12/01 07:49:23;;;;;;;38.70;15.07;;;;;;;;;;5021818;28;20038;-61
2023/12/01 07:51:48;;;;;;;42.75;16.90;;;;;;;;;;5018035;28;20116;-61
2023/12/01 07:54:13;;;;;;;38.80;14.15;;;;;;;;;;5027132;28;20029;-60
2023/12/01 07:56:38;;;;;;;36.67;14.63;;;;;;;;;;5025794;28;20484;-61
2023/12/01 07:59:05;;;;;;;40.60;15.43;;;;;;;;;;5030460;28;20014;-61
2023/12/01 08:01:30;;;;;;;;;;;;;;;;;;5022011;28;20374;-61
2023/12/01 08:03:56;;;;;;;38.50;13.88;;;;;;;;;;5029584;28;19963;-61
2023/12/01 08:06:21;;;;;;;36.75;14.52;;;;;;;;;;5027140;28;20097;-61
2023/12/01 08:08:46;;;;;;;39.95;15.75;;;;;;;;;;5028894;28;20658;-62
2023/12/01 08:11:12;;;;;;;38.30;14.40;;;;;;;;;;5013800;28;20045;-59
2023/12/01 08:13:37;;;;;;;42.22;16.73;;;;;;;;;;5021808;28;20041;-62
2023/12/01 08:16:02;;;;;;;38.67;16.13;;;;;;;;;;5021427;28;20029;-61
2023/12/01 08:18:27;;;;;;;38.70;15.30;;;;;;;;;;5023717;28;20017;-61
2023/12/01 08:20:52;;;;;;;39.90;15.87;;;;;;;;;;5027128;28;20100;-60
2023/12/01 08:23:18;;;;;;;38.40;14.67;;;;;;;;;;5023729;28;20095;-60
2023/12/01 08:25:43;;;;;;;38.60;14.85;;;;;;;;;;5032906;28;20018;-60
2023/12/01 08:28:08;;;;;;;40.42;15.38;;;;;;;;;;5029417;28;20037;-61
2023/12/01 08:30:33;;;;;;;37.93;15.57;;;;;;;;;;5026559;28;20075;-60
2023/12/01 08:32:58;;;;;;;39.50;16.50;;;;;;;;;;5017137;28;20022;-61
2023/12/01 08:35:24;;;;;;;39.72;15.43;;;;;;;;;;5018029;28;20018;-59
2023/12/01 08:37:51;;;;;;;36.58;14.63;;;;;;;;;;5030084;28;20033;-60
2023/12/01 08:40:16;;;;;;;41.35;15.80;;;;;;;;;;5020996;28;20037;-61
2023/12/01 08:42:41;;;;;;;40.03;15.40;;;;;;;;;;5013067;28;20018;-61
2023/12/01 08:45:07;;;;;;;36.63;14.80;;;;;;;;;;5022849;28;20037;-61
2023/12/01 08:47:32;;;;;;;39.30;16.17;;;;;;;;;;5025218;28;20075;-61
2023/12/01 08:49:57;;;;;;;38.87;14.40;;;;;;;;;;5027521;28;20032;-61
2023/12/01 08:52:22;;;;;;;37.93;15.27;;;;;;;;;;5026546;28;20139;-61
2023/12/01 08:54:47;;;;;;;38.50;15.88;;;;;;;;;;5025082;28;20462;-61
2023/12/01 08:57:12;;;;;;;37.05;15.45;;;;;;;;;;5013586;28;20106;-61
2023/12/01 08:59:38;;;;;;;39.13;15.60;;;;;;;;;;5025107;28;20025;-61
2023/12/01 09:02:04;;;;;;;39.00;15.87;;;;;;;;;;5029512;28;20647;-61
2023/12/01 09:04:29;;;;;;;35.80;14.50;;;;;;;;;;5024814;28;20482;-61
2023/12/01 09:06:54;;;;;;;39.63;15.60;;;;;;;;;;5022040;28;20019;-62
2023/12/01 09:09:19;;;;;;;39.05;15.63;;;;;;;;;;5023652;28;20399;-62
2023/12/01 09:11:44;;;;;;;39.17;15.90;;;;;;;;;;5023958;28;20014;-62
2023/12/01 09:14:09;;;;;;;42.40;16.17;;;;;;;;;;5020292;28;20030;-61
2023/12/01 09:16:35;;;;;;;34.90;14.15;;;;;;;;;;5023070;28;20032;-62
2023/12/01 09:19:00;;;;;;;36.70;15.73;;;;;;;;;;5028056;28;20021;-62
2023/12/01 09:21:25;;;;;;;36.23;14.83;;;;;;;;;;5012912;28;20026;-62
2023/12/01 09:23:50;;;;;;;37.10;15.68;;;;;;;;;;5030014;28;20021;-61
2023/12/01 09:26:17;;;;;;;37.67;15.83;;;;;;;;;;5021851;28;20032;-60
2023/12/01 09:28:42;;;;;;;38.85;15.38;;;;;;;;;;5023244;28;20493;-62
2023/12/01 09:31:07;;;;;;;33.60;14.23;;;;;;;;;;5014550;28;20110;-62
2023/12/01 09:33:32;;;;;;;39.08;15.65;;;;;;;;;;5027607;28;20045;-61
2023/12/01 09:35:57;;;;;;;41.85;15.75;;;;;;;;;;5025215;28;20074;-61
2023/12/01 09:38:22;;;;;;;38.28;15.95;;;;;;;;;;5028617;28;20025;-61
2023/12/01 09:40:48;;;;;;;37.40;15.87;;;;;;;;;;5021635;28;20021;-62
2023/12/01 09:43:16;;;;;;;41.80;16.80;;;;;;;;;;5027754;28;20584;-61
2023/12/01 09:45:42;;;;;;;41.50;16.45;;;;;;;;;;5020671;28;20017;-61
2023/12/01 09:48:08;;;;;;;37.93;15.13;;;;;;;;;;5016534;28;20091;-62
2023/12/01 09:50:34;;;;;;;39.42;16.10;;;;;;;;;;5030598;28;20417;-61
2023/12/01 09:52:59;;;;;;;37.67;15.23;;;;;;;;;;5030449;28;20491;-61
2023/12/01 09:55:25;;;;;;;37.67;15.67;;;;;;;;;;5024704;28;20026;-61
2023/12/01 09:57:52;;;;;;;38.83;16.40;;;;;;;;;;5035585;28;20456;-61
2023/12/01 10:00:17;;;;;;;45.58;18.02;;;;;;;;;;5028826;28;20022;-61
2023/12/01 10:02:42;;;;;;;43.33;17.03;;;;;;;;;;5033217;28;20032;-63
2023/12/01 10:05:07;;;;;;;39.97;15.67;;;;;;;;;;5038224;28;20030;-63
2023/12/01 10:07:34;;;;;;;38.17;15.45;;;;;;;;;;5035457;28;20102;-60
2023/12/01 10:09:59;;;;;;;41.55;16.00;;;;;;;;;;5029772;28;20041;-61
2023/12/01 10:12:24;;;;;;;37.13;15.13;;;;;;;;;;5010329;28;20018;-60
2023/12/01 10:14:49;;;;;;;35.87;14.70;;;;;;;;;;5028821;28;20116;-60
2023/12/01 10:17:14;;;;;;;36.78;15.18;;;;;;;;;;5019645;28;20030;-61
2023/12/01 10:19:49;;;;;;;37.50;15.25;;;;;;;;;;5016900;28;20021;-60
2023/12/01 10:22:19;;;;;;;33.10;14.15;;;;;;;;;;5029893;28;20032;-61
2023/12/01 10:24:53;;;;;;;42.13;28.38;;;;;;;;;;5023073;28;20051;-60
2023/12/01 10:27:19;;;;;;;35.42;14.40;;;;;;;;;;5023504;28;20053;-60
2023/12/01 10:29:44;;;;;;;38.92;16.27;;;;;;;;;;5033165;28;20468;-61
2023/12/01 10:32:11;;;;;;;37.55;14.95;;;;;;;;;;5023130;28;20026;-60
2023/12/01 10:34:46;;;;;;;34.65;14.68;;;;;;;;;;5020891;28;20024;-61
2023/12/01 10:37:11;;;;;;;35.78;14.68;;;;;;;;;;5030442;28;20033;-61
2023/12/01 10:39:37;;;;;;;35.93;14.97;;;;;;;;;;5022791;28;20495;-60
2023/12/01 10:42:03;;;;;;;38.05;14.57;;;;;;;;;;5022752;28;20389;-61
2023/12/01 10:44:28;;;;;;;38.55;15.65;;;;;;;;;;5023787;28;20025;-61
2023/12/01 10:46:54;;;;;;;37.90;15.48;;;;;;;;;;5022425;28;20021;-61
2023/12/01 10:49:20;;;;;;;40.75;16.08;;;;;;;;;;5024636;28;20029;-60
2023/12/01 10:51:46;;;;;;;37.90;15.23;;;;;;;;;;5029476;28;20071;-60
2023/12/01 10:54:12;;;;;;;39.50;16.02;;;;;;;;;;5018469;28;20032;-61
2023/12/01 10:56:45;;;;;;;38.53;16.70;;;;;;;;;;5018469;28;20017;-61
2023/12/01 10:59:11;;;;;;;35.95;14.85;;;;;;;;;;5021329;28;20049;-61
2023/12/01 11:01:38;;;;;;;38.10;15.70;;;;;;;;;;5021420;28;20026;-61
2023/12/01 11:04:06;;;;;;;37.80;16.58;;;;;;;;;;5024625;28;20096;-60
2023/12/01 11:06:38;;;;;;;38.53;16.60;;;;;;;;;;5029841;28;20017;-61
2023/12/01 11:09:09;;;;;;;40.28;16.02;;;;;;;;;;5014010;28;20033;-61
2023/12/01 11:11:54;;;;;;;38.17;16.05;;;;;;;;;;5016507;28;20029;-60
2023/12/01 11:14:24;;;;;;;36.17;15.38;;;;;;;;;;5019487;28;20068;-61
2023/12/01 11:16:49;;;;;;;36.83;15.32;;;;;;;;;;5026264;28;20025;-61
2023/12/01 11:19:15;;;;;;;36.30;15.55;;;;;;;;;;5026836;28;20072;-60
2023/12/01 11:21:42;;;;;;;37.05;15.18;;;;;;;;;;5029157;28;20464;-61
2023/12/01 11:24:07;;;;;;;;;;;;;;;;;;5028319;28;20037;-60
2023/12/01 11:26:32;;;;;;;35.70;14.70;;;;;;;;;;5021789;28;20003;-60
2023/12/01 11:29:04;;;;;;;39.20;15.35;;;;;;;;;;5024866;28;20117;-61
2023/12/01 11:31:41;;;;;;;37.53;15.07;;;;;;;;;;5027208;28;20104;-61
2023/12/01 11:34:12;;;;;;;39.95;16.50;;;;;;;;;;5026443;28;20045;-61
2023/12/01 11:36:37;;;;;;;36.33;15.40;;;;;;;;;;5025630;28;20052;-60
2023/12/01 11:39:11;;;;;;;37.53;16.47;;;;;;;;;;5024203;28;20049;-60
2023/12/01 11:41:43;;;;;;;38.97;15.43;;;;;;;;;;5025827;28;20041;-61
2023/12/01 11:44:09;;;;;;;40.45;17.27;;;;;;;;;;5030873;28;20044;-60
2023/12/01 11:46:36;;;;;;;39.70;16.08;;;;;;;;;;5033566;28;20534;-60
2023/12/01 11:49:01;;;;;;;39.28;15.90;;;;;;;;;;5024484;28;20453;-60
2023/12/01 11:51:27;;;;;;;39.87;15.97;;;;;;;;;;5014047;28;20045;-61
2023/12/01 11:53:58;;;;;;;39.33;15.90;;;;;;;;;;5025549;28;20017;-61
2023/12/01 11:56:33;;;;;;;38.03;16.02;;;;;;;;;;5021004;28;20022;-60
2023/12/01 11:58:58;;;;;;;38.30;16.10;;;;;;;;;;5028062;28;20021;-60
2023/12/01 12:01:24;;;;;;;38.65;16.02;;;;;;;;;;5029376;28;20085;-61
2023/12/01 12:03:55;;;;;;;41.07;17.80;;;;;;;;;;5030896;28;20079;-60
2023/12/01 12:06:20;;;;;;;40.60;16.60;;;;;;;;;;5025035;28;20092;-61
2023/12/01 12:08:46;;;;;;;41.07;16.07;;;;;;;;;;5018131;28;20109;-60
2023/12/01 12:11:12;;;;;;;42.38;17.77;;;;;;;;;;5022178;28;20017;-61
2023/12/01 12:13:37;;;;;;;42.63;17.17;;;;;;;;;;5022680;28;20187;-60
2023/12/01 12:16:02;;;;;;;45.50;17.77;;;;;;;;;;5031363;28;21015;-59
2023/12/01 12:18:29;;;;;;;39.03;16.30;;;;;;;;;;5029375;28;20455;-61
2023/12/01 12:20:59;;;;;;;43.25;18.30;;;;;;;;;;5025439;28;20021;-60
2023/12/01 12:23:24;;;;;;;40.97;17.08;;;;;;;;;;5022273;28;20437;-61
2023/12/01 12:25:52;;;;;;;42.85;16.40;;;;;;;;;;5020231;28;20040;-61
2023/12/01 12:28:18;;;;;;;38.63;16.83;;;;;;;;;;5024182;28;20025;-62
2023/12/01 12:30:44;;;;;;;42.25;16.88;;;;;;;;;;5029258;28;20060;-61
2023/12/01 12:33:09;;;;;;;45.53;18.73;;;;;;;;;;5024691;28;20478;-61
2023/12/01 12:35:35;;;;;;;47.22;18.08;;;;;;;;;;5015944;28;20030;-61
2023/12/01 12:38:00;;;;;;;41.83;16.48;;;;;;;;;;5030409;28;20382;-61
2023/12/01 12:40:25;;;;;;;41.07;16.47;;;;;;;;;;5023037;28;20040;-60
2023/12/01 12:42:54;;;;;;;42.90;17.43;;;;;;;;;;5015816;28;20101;-61
2023/12/01 12:45:20;;;;;;;43.88;17.92;;;;;;;;;;5023150;28;20112;-60
2023/12/01 12:47:45;;;;;;;42.95;17.42;;;;;;;;;;5027684;28;20112;-61
2023/12/01 12:50:13;;;;;;;46.67;17.98;;;;;;;;;;5019221;28;20099;-62
2023/12/01 12:52:38;;;;;;;43.42;17.45;;;;;;;;;;5028959;28;20025;-61
2023/12/01 12:55:04;;;;;;;43.73;17.93;;;;;;;;;;5022187;28;20156;-62
2023/12/01 12:57:29;;;;;;;48.50;18.77;;;;;;;;;;5023667;28;20032;-59
2023/12/01 12:59:55;;;;;;;46.13;18.27;;;;;;;;;;5015258;28;20390;-61
2023/12/01 13:02:20;;;;;;;44.07;16.80;;;;;;;;;;5020771;28;20021;-61
2023/12/01 13:04:45;;;;;;;46.67;18.40;;;;;;;;;;5017846;28;20022;-61
2023/12/01 13:07:10;;;;;;;48.20;18.38;;;;;;;;;;5015556;28;20119;-60
2023/12/01 13:09:37;;;;;;;45.90;18.08;;;;;;;;;;5020997;28;20030;-61
2023/12/01 13:12:02;;;;;;;43.67;17.95;;;;;;;;;;5020265;28;20022;-60
2023/12/01 13:14:28;;;;;;;44.57;18.30;;;;;;;;;;5022014;28;20020;-60
2023/12/01 13:16:53;;;;;;;49.47;19.87;;;;;;;;;;5016276;28;20457;-59
2023/12/01 13:19:18;;;;;;;46.38;17.95;;;;;;;;;;5029695;28;20092;-60
2023/12/01 13:21:43;;;;;;;46.63;18.40;;;;;;;;;;5021997;28;20021;-61
2023/12/01 13:24:09;;;;;;;51.05;19.52;;;;;;;;;;5021726;28;20025;-62
2023/12/01 13:26:34;;;;;;;47.55;17.90;;;;;;;;;;5021167;28;20446;-60
2023/12/01 13:28:59;;;;;;;45.47;18.50;;;;;;;;;;5026491;28;20033;-60
2023/12/01 13:31:24;;;;;;;47.47;19.00;;;;;;;;;;5028992;28;20036;-62
2023/12/01 13:33:50;;;;;;;51.90;19.37;;;;;;;;;;5033248;28;20025;-63
2023/12/01 13:36:15;;;;;;;45.30;18.40;;;;;;;;;;5027755;28;20029;-61
2023/12/01 13:38:40;;;;;;;49.22;19.90;;;;;;;;;;5024720;28;20041;-61
2023/12/01 13:41:05;;;;;;;47.30;19.53;;;;;;;;;;5027804;28;20025;-61
2023/12/01 13:43:30;;;;;;;49.72;19.35;;;;;;;;;;5022969;28;20040;-59
2023/12/01 13:45:56;;;;;;;45.40;18.43;;;;;;;;;;5024186;28;20021;-60
2023/12/01 13:48:21;;;;;;;43.83;18.55;;;;;;;;;;5020187;28;20079;-62
2023/12/01 13:50:47;;;;;;;47.67;18.95;;;;;;;;;;5022585;28;20048;-61
2023/12/01 13:53:12;;;;;;;48.53;18.90;;;;;;;;;;5012209;28;20098;-61
2023/12/01 13:55:38;;;;;;;48.00;18.70;;;;;;;;;;5027541;28;20079;-61
2023/12/01 13:58:03;;;;;;;48.55;18.75;;;;;;;;;;5016146;28;20492;-61
2023/12/01 14:00:28;;;;;;;44.87;18.73;;;;;;;;;;5020580;28;20047;-61
2023/12/01 14:02:54;;;;;;;42.37;17.97;;;;;;;;;;5025804;28;20060;-61
2023/12/01 14:05:19;;;;;;;48.70;19.70;;;;;;;;;;5016785;28;20444;-61
2023/12/01 14:07:44;;;;;;;50.42;20.05;;;;;;;;;;5019997;28;20056;-61
2023/12/01 14:10:11;;;;;;;44.45;18.63;;;;;;;;;;5011414;28;20072;-60